Time;durP1;ratioP1;P1;durP2;ratioP2;P2;SDS_P1;SDS_P2;PMS_P1;PMS_P2;Temp;Humidity;BMP_temperature;BMP_pressure;BME280_temperature;BME280_humidity;BME280_pressure;Samples;Min_cycle;Max_cycle;Signal;HPM_P1;HPM_P2
2021/08/02 00:00:13;;;;;;;4.38;3.83;;;;;;;13.32;100.00;100102.63;4907705;29;20061;-76
2021/08/02 00:02:56;;;;;;;4.75;3.75;;;;;;;13.34;100.00;100100.78;4900041;29;20040;-75
2021/08/02 00:05:23;;;;;;;5.38;3.70;;;;;;;13.31;100.00;100108.00;4942149;28;20117;-75
2021/08/02 00:07:57;;;;;;;5.90;4.28;;;;;;;13.33;100.00;100108.78;4900998;29;20067;-75
2021/08/02 00:10:30;;;;;;;4.20;3.53;;;;;;;13.35;100.00;100112.25;4955091;28;20048;-76
2021/08/02 00:13:13;;;;;;;4.82;3.88;;;;;;;13.37;100.00;100105.97;4928599;29;20044;-76
2021/08/02 00:15:40;;;;;;;5.60;3.78;;;;;;;13.34;100.00;100114.03;4922933;29;20051;-75
2021/08/02 00:18:08;;;;;;;5.07;4.20;;;;;;;13.30;100.00;100103.63;4914470;29;20047;-75
2021/08/02 00:20:36;;;;;;;5.32;4.18;;;;;;;13.37;100.00;100108.63;4908132;29;20152;-75
2021/08/02 00:23:09;;;;;;;5.85;3.75;;;;;;;13.43;100.00;100113.66;4920455;29;20081;-75
2021/08/02 00:25:37;;;;;;;5.85;3.75;;;;;;;13.46;100.00;100100.28;4912287;29;20039;-76
2021/08/02 00:28:04;;;;;;;6.60;4.35;;;;;;;13.54;100.00;100110.59;4923682;29;20046;-76
2021/08/02 00:30:31;;;;;;;6.43;4.57;;;;;;;13.53;100.00;100106.19;4938721;28;20052;-76
2021/08/02 00:32:58;;;;;;;6.07;4.47;;;;;;;13.60;100.00;100109.44;4913567;29;20434;-75
2021/08/02 00:35:25;;;;;;;7.63;4.60;;;;;;;13.65;100.00;100102.16;4927291;29;20040;-76
2021/08/02 00:38:04;;;;;;;5.70;4.30;;;;;;;13.67;100.00;100100.31;4898189;29;20066;-74
2021/08/02 00:40:43;;;;;;;4.90;3.92;;;;;;;13.70;100.00;100106.34;4937192;29;20107;-76
2021/08/02 00:43:21;;;;;;;6.50;4.55;;;;;;;13.73;100.00;100102.72;4928814;29;20059;-75
2021/08/02 00:45:51;;;;;;;4.85;4.30;;;;;;;13.79;100.00;100103.31;4901250;29;20052;-75
2021/08/02 00:48:22;;;;;;;6.40;4.50;;;;;;;13.79;100.00;100102.47;4940495;28;20044;-75
2021/08/02 00:50:50;;;;;;;6.35;4.22;;;;;;;13.81;100.00;100105.91;4935663;29;20103;-75
2021/08/02 00:53:20;;;;;;;5.60;3.95;;;;;;;13.84;100.00;100110.22;4920776;29;20415;-75
2021/08/02 00:55:50;;;;;;;7.18;5.18;;;;;;;13.97;100.00;100101.66;4925152;29;20048;-75
2021/08/02 00:58:18;;;;;;;6.10;4.40;;;;;;;13.89;100.00;100100.28;4943084;29;20047;-75
2021/08/02 01:00:47;;;;;;;6.38;4.30;;;;;;;13.92;100.00;100103.66;4928731;29;20094;-76
2021/08/02 01:03:16;;;;;;;5.28;4.05;;;;;;;13.92;100.00;100103.66;4930489;29;20130;-76
2021/08/02 01:05:46;;;;;;;5.47;4.60;;;;;;;13.93;100.00;100105.38;4926670;29;20067;-75
2021/08/02 01:08:26;;;;;;;5.63;4.43;;;;;;;13.97;100.00;100114.09;4910684;29;20134;-76
2021/08/02 01:11:00;;;;;;;5.53;3.75;;;;;;;13.97;100.00;100112.28;4961325;28;20036;-75
2021/08/02 01:13:29;;;;;;;4.68;3.80;;;;;;;13.98;100.00;100108.69;4931519;29;20075;-76
2021/08/02 01:15:59;;;;;;;5.53;4.30;;;;;;;14.02;100.00;100104.97;4920513;29;20159;-76
2021/08/02 01:18:25;;;;;;;6.78;5.10;;;;;;;14.06;100.00;100106.56;4912013;29;20681;-75
2021/08/02 01:20:54;;;;;;;5.95;4.28;;;;;;;14.06;100.00;100097.75;4928920;29;20072;-75
2021/08/02 01:23:21;;;;;;;4.60;3.85;;;;;;;14.07;100.00;100105.63;4920655;29;20043;-75
2021/08/02 01:25:48;;;;;;;5.07;4.15;;;;;;;14.11;100.00;100106.34;4927865;28;20048;-76
2021/08/02 01:28:14;;;;;;;6.50;4.30;;;;;;;14.14;100.00;100118.66;4929117;29;20044;-76
2021/08/02 01:30:42;;;;;;;4.97;4.00;;;;;;;14.13;100.00;100123.13;4945629;29;20052;-76
2021/08/02 01:33:09;;;;;;;5.90;4.05;;;;;;;14.15;100.00;100125.69;4912528;29;20044;-76
2021/08/02 01:35:36;;;;;;;5.32;3.83;;;;;;;14.16;100.00;100127.41;4956332;28;20057;-75
2021/08/02 01:38:04;;;;;;;4.93;4.22;;;;;;;14.20;100.00;100129.00;4930768;29;20062;-75
2021/08/02 01:40:31;;;;;;;6.43;4.72;;;;;;;14.19;100.00;100132.59;4930498;29;20052;-76
2021/08/02 01:43:02;;;;;;;5.93;4.40;;;;;;;14.19;100.00;100130.78;4925532;29;20028;-76
2021/08/02 01:45:30;;;;;;;6.55;4.38;;;;;;;14.23;100.00;100131.53;4916089;29;20102;-77
2021/08/02 01:48:11;;;;;;;6.95;5.20;;;;;;;14.20;100.00;100126.34;4959313;28;20040;-76
2021/08/02 01:50:59;;;;;;;7.40;5.05;;;;;;;14.23;100.00;100123.56;4941480;29;20098;-75
2021/08/02 01:53:31;;;;;;;8.63;5.03;;;;;;;14.28;100.00;100130.38;4928248;29;20036;-76
2021/08/02 01:56:02;;;;;;;6.28;4.80;;;;;;;14.28;100.00;100133.03;4927514;29;20048;-76
2021/08/02 01:58:31;;;;;;;5.35;4.32;;;;;;;14.31;100.00;100140.03;4926070;29;20050;-75
2021/08/02 02:00:58;;;;;;;6.38;4.85;;;;;;;14.33;100.00;100143.47;4936088;28;20103;-76
2021/08/02 02:03:26;;;;;;;6.50;4.97;;;;;;;14.32;100.00;100149.72;4960619;28;20063;-76
2021/08/02 02:06:00;;;;;;;5.70;4.90;;;;;;;14.37;100.00;100145.91;4926047;29;20040;-75
2021/08/02 02:08:32;;;;;;;7.22;5.57;;;;;;;14.38;100.00;100144.16;4916322;29;20079;-75
2021/08/02 02:11:02;;;;;;;6.43;5.13;;;;;;;14.34;100.00;100151.38;4908332;29;20051;-75
2021/08/02 02:13:35;;;;;;;8.40;5.35;;;;;;;14.36;100.00;100141.53;4919411;29;20567;-76
2021/08/02 02:16:03;;;;;;;5.57;4.38;;;;;;;14.34;100.00;100142.53;4949961;28;20091;-76
2021/08/02 02:18:32;;;;;;;7.47;5.07;;;;;;;14.38;100.00;100149.47;4928301;29;20047;-75
2021/08/02 02:20:59;;;;;;;6.55;4.70;;;;;;;14.42;100.00;100145.72;4956127;28;20504;-75
2021/08/02 02:23:26;;;;;;;6.78;5.10;;;;;;;14.43;100.00;100150.09;4926179;29;20140;-76
2021/08/02 02:25:53;;;;;;;9.07;5.63;;;;;;;14.44;100.00;100149.19;4926880;29;20050;-74
2021/08/02 02:28:20;;;;;;;5.93;5.07;;;;;;;14.41;100.00;100153.78;4931540;29;20044;-75
2021/08/02 02:30:48;;;;;;;5.70;4.47;;;;;;;14.43;100.00;100158.09;4934549;29;20409;-75
2021/08/02 02:33:15;;;;;;;6.30;4.57;;;;;;;14.44;100.00;100148.31;4933576;29;20050;-76
2021/08/02 02:35:44;;;;;;;5.97;4.50;;;;;;;14.44;100.00;100157.16;4913495;29;20048;-75
2021/08/02 02:38:12;;;;;;;5.65;4.38;;;;;;;14.42;100.00;100159.03;4919968;29;20064;-75
2021/08/02 02:40:43;;;;;;;7.47;5.00;;;;;;;14.49;100.00;100164.97;4928858;29;20090;-75
2021/08/02 02:43:11;;;;;;;6.25;4.50;;;;;;;14.46;100.00;100173.06;4934175;28;20376;-75
2021/08/02 02:45:39;;;;;;;4.88;4.03;;;;;;;14.41;100.00;100175.03;4927595;29;20044;-76
2021/08/02 02:48:06;;;;;;;5.97;4.45;;;;;;;14.38;100.00;100181.38;4948510;28;20060;-75
2021/08/02 02:50:34;;;;;;;6.82;4.47;;;;;;;14.36;100.00;100184.06;4932361;29;20051;-76
2021/08/02 02:53:03;;;;;;;5.60;4.20;;;;;;;14.41;100.00;100175.03;4922943;29;20103;-76
2021/08/02 02:55:31;;;;;;;5.57;4.00;;;;;;;14.39;100.00;100175.13;4950312;28;20067;-75
2021/08/02 02:57:57;;;;;;;5.32;4.00;;;;;;;14.38;100.00;100173.38;4913950;29;20104;-75
2021/08/02 03:00:24;;;;;;;5.32;4.07;;;;;;;14.40;100.00;100171.53;4937240;29;20053;-76
2021/08/02 03:02:53;;;;;;;5.40;4.20;;;;;;;14.39;100.00;100179.56;4944848;29;20141;-75
2021/08/02 03:05:21;;;;;;;4.35;3.55;;;;;;;14.40;100.00;100178.63;4960512;28;20546;-75
2021/08/02 03:07:50;;;;;;;4.90;3.75;;;;;;;14.44;100.00;100188.19;4941512;29;20109;-76
2021/08/02 03:10:20;;;;;;;5.95;3.60;;;;;;;14.44;100.00;100185.53;4945560;28;20051;-76
2021/08/02 03:12:49;;;;;;;4.60;3.67;;;;;;;14.39;100.00;100190.19;4926298;28;20067;-75
2021/08/02 03:15:16;;;;;;;5.68;3.67;;;;;;;14.32;100.00;100185.13;4962404;28;20099;-75
2021/08/02 03:17:42;;;;;;;5.68;3.55;;;;;;;14.36;100.00;100183.19;4923195;29;20039;-75
2021/08/02 03:20:10;;;;;;;5.13;3.40;;;;;;;14.34;100.00;100182.41;4918658;29;20052;-76
2021/08/02 03:22:42;;;;;;;7.13;3.50;;;;;;;14.26;100.00;100184.53;4919652;29;20044;-76
2021/08/02 03:25:32;;;;;;;5.20;3.35;;;;;;;14.22;100.00;100181.16;4916652;29;20115;-75
2021/08/02 03:28:09;;;;;;;4.10;3.40;;;;;;;14.18;100.00;100178.69;4929871;29;20048;-75
2021/08/02 03:30:37;;;;;;;5.03;3.13;;;;;;;14.20;100.00;100190.09;4900643;29;20055;-76
2021/08/02 03:33:07;;;;;;;5.32;3.30;;;;;;;14.19;100.00;100196.34;4931092;29;20091;-75
2021/08/02 03:35:33;;;;;;;4.72;2.83;;;;;;;14.17;100.00;100196.41;4957484;28;20154;-76
2021/08/02 03:38:01;;;;;;;4.95;3.05;;;;;;;14.14;100.00;100191.25;4947608;28;20415;-76
2021/08/02 03:40:28;;;;;;;3.70;3.20;;;;;;;14.15;100.00;100192.09;4922843;29;20072;-75
2021/08/02 03:42:56;;;;;;;4.07;2.72;;;;;;;14.08;100.00;100199.47;4924144;29;20543;-76
2021/08/02 03:45:25;;;;;;;4.70;2.95;;;;;;;14.05;100.00;100197.81;4960595;28;20048;-75
2021/08/02 03:47:52;;;;;;;4.75;3.28;;;;;;;14.02;100.00;100197.06;4923386;29;20064;-75
2021/08/02 03:50:19;;;;;;;4.85;3.55;;;;;;;13.98;100.00;100193.69;4923041;29;20500;-75
2021/08/02 03:52:47;;;;;;;5.18;3.17;;;;;;;14.02;100.00;100200.59;4911366;29;20432;-76
2021/08/02 03:55:14;;;;;;;4.93;3.35;;;;;;;13.97;100.00;100205.25;4954793;28;20040;-76
2021/08/02 03:57:40;;;;;;;4.55;3.28;;;;;;;13.97;100.00;100207.03;4914859;29;20546;-75
2021/08/02 04:00:07;;;;;;;5.35;3.22;;;;;;;13.95;100.00;100214.19;4942214;29;20044;-75
2021/08/02 04:02:34;;;;;;;5.93;3.47;;;;;;;13.94;100.00;100221.28;4943238;29;20048;-76
2021/08/02 04:05:03;;;;;;;6.28;2.97;;;;;;;13.88;100.00;100220.69;4909355;29;20463;-76
2021/08/02 04:07:29;;;;;;;3.95;2.88;;;;;;;13.82;100.00;100223.59;4929854;29;20044;-75
2021/08/02 04:09:56;;;;;;;5.78;3.03;;;;;;;13.81;100.00;100222.72;4914732;28;20666;-76
2021/08/02 04:12:23;;;;;;;3.72;2.78;;;;;;;13.78;100.00;100233.44;4959417;28;20040;-74
2021/08/02 04:14:49;;;;;;;7.45;3.20;;;;;;;13.81;100.00;100225.38;4947251;28;20035;-75
2021/08/02 04:17:19;;;;;;;4.50;3.50;;;;;;;13.90;100.00;100229.47;4954584;28;20048;-76
2021/08/02 04:19:46;;;;;;;3.20;2.80;;;;;;;14.02;100.00;100239.56;4943088;28;20043;-75
2021/08/02 04:22:12;;;;;;;6.15;3.40;;;;;;;14.03;100.00;100236.84;4921962;29;20620;-75
2021/08/02 04:24:39;;;;;;;3.83;3.10;;;;;;;14.08;100.00;100236.66;4921455;29;20107;-75
2021/08/02 04:27:06;;;;;;;5.70;3.22;;;;;;;14.16;100.00;100247.84;4940290;29;20068;-75
2021/08/02 04:29:32;;;;;;;5.22;3.17;;;;;;;14.20;100.00;100246.75;4958986;28;20044;-76
2021/08/02 04:31:59;;;;;;;5.63;3.15;;;;;;;14.25;100.00;100249.25;4946436;28;20036;-75
2021/08/02 04:34:26;;;;;;;4.93;3.08;;;;;;;14.28;100.00;100257.94;4960080;28;20450;-76
2021/08/02 04:36:52;;;;;;;4.80;3.50;;;;;;;14.38;100.00;100258.44;4951790;28;20099;-77
2021/08/02 04:39:19;;;;;;;5.90;3.55;;;;;;;14.44;100.00;100259.94;4939696;28;20534;-76
2021/08/02 04:41:46;;;;;;;4.55;3.13;;;;;;;14.53;100.00;100255.13;4927959;29;20052;-75
2021/08/02 04:44:12;;;;;;;4.25;3.15;;;;;;;14.60;100.00;100261.03;4938373;29;20051;-76
2021/08/02 04:46:39;;;;;;;6.13;3.30;;;;;;;14.71;100.00;100258.78;4923977;29;20043;-76
2021/08/02 04:49:06;;;;;;;4.60;3.35;;;;;;;14.70;100.00;100259.72;4933507;29;20039;-76
2021/08/02 04:51:32;;;;;;;5.82;3.55;;;;;;;14.75;100.00;100264.84;4934165;29;20095;-76
2021/08/02 04:53:59;;;;;;;4.03;3.08;;;;;;;14.81;100.00;100267.25;4963333;28;20519;-77
2021/08/02 04:56:26;;;;;;;4.60;3.10;;;;;;;14.91;100.00;100269.41;4914830;29;20048;-76
2021/08/02 04:58:52;;;;;;;3.70;2.65;;;;;;;14.97;100.00;100273.59;4946118;29;20056;-77
2021/08/02 05:01:20;;;;;;;4.57;2.90;;;;;;;14.93;100.00;100274.66;4929780;29;20052;-77
2021/08/02 05:03:47;;;;;;;5.85;3.63;;;;;;;15.05;100.00;100270.56;4928654;29;20034;-77
2021/08/02 05:06:13;;;;;;;4.68;3.20;;;;;;;15.10;100.00;100269.44;4932599;29;20088;-77
2021/08/02 05:08:43;;;;;;;4.97;2.80;;;;;;;15.23;100.00;100266.25;4933494;29;20625;-79
2021/08/02 05:11:09;;;;;;;3.72;2.90;;;;;;;15.38;100.00;100269.03;4930969;29;20044;-76
2021/08/02 05:13:36;;;;;;;4.93;2.78;;;;;;;15.32;100.00;100273.81;4939330;29;20596;-76
2021/08/02 05:16:07;;;;;;;6.60;2.90;;;;;;;15.35;100.00;100266.53;4936239;28;20432;-77
2021/08/02 05:18:33;;;;;;;3.63;2.88;;;;;;;15.28;100.00;100269.53;4933556;29;20063;-77
2021/08/02 05:21:00;;;;;;;5.25;3.35;;;;;;;15.27;100.00;100266.00;4910656;29;20115;-76
2021/08/02 05:23:27;;;;;;;5.22;2.67;;;;;;;15.27;100.00;100267.81;4929191;29;20039;-77
2021/08/02 05:25:54;;;;;;;4.50;3.30;;;;;;;15.27;100.00;100271.34;4928402;29;20044;-77
2021/08/02 05:28:20;;;;;;;5.22;2.88;;;;;;;15.30;100.00;100276.53;4931438;29;20098;-77
2021/08/02 05:30:47;;;;;;;3.78;2.80;;;;;;;15.27;100.00;100270.47;4936435;29;20091;-77
2021/08/02 05:33:14;;;;;;;5.43;2.92;;;;;;;15.31;100.00;100280.91;4930703;29;20867;-77
2021/08/02 05:35:40;;;;;;;6.47;2.78;;;;;;;15.36;100.00;100270.03;4927946;29;20095;-77
2021/08/02 05:38:07;;;;;;;5.47;3.15;;;;;;;15.38;100.00;100279.69;4929888;29;20036;-77
2021/08/02 05:40:34;;;;;;;6.80;3.20;;;;;;;15.40;100.00;100288.47;4925833;29;20048;-76
2021/08/02 05:43:00;;;;;;;5.75;3.03;;;;;;;15.39;100.00;100283.22;4928899;29;20099;-76
2021/08/02 05:45:27;;;;;;;3.83;2.65;;;;;;;15.34;100.00;100287.88;4927650;29;20062;-75
2021/08/02 05:47:55;;;;;;;5.43;2.90;;;;;;;15.25;100.00;100283.84;4927795;29;20056;-75
2021/08/02 05:50:22;;;;;;;3.10;2.65;;;;;;;15.21;100.00;100288.44;4931669;28;20082;-78
2021/08/02 05:52:49;;;;;;;4.43;2.78;;;;;;;15.06;100.00;100289.16;4926305;29;20043;-76
2021/08/02 05:55:17;;;;;;;5.13;2.92;;;;;;;15.01;100.00;100293.81;4949674;28;20067;-76
2021/08/02 05:57:44;;;;;;;4.25;2.60;;;;;;;15.01;100.00;100298.25;4930236;29;20031;-76
2021/08/02 06:00:11;;;;;;;4.82;2.60;;;;;;;15.06;100.00;100294.47;4947840;28;20055;-75
2021/08/02 06:02:38;;;;;;;4.70;2.83;;;;;;;14.92;100.00;100297.75;4926903;29;20044;-77
2021/08/02 06:05:06;;;;;;;4.80;3.20;;;;;;;15.09;100.00;100296.13;4928095;29;20051;-76
2021/08/02 06:07:33;;;;;;;5.55;3.55;;;;;;;15.19;100.00;100294.78;4929647;28;20051;-75
2021/08/02 06:10:00;;;;;;;5.55;2.80;;;;;;;15.51;100.00;100298.63;4918253;29;20055;-76
2021/08/02 06:12:27;;;;;;;4.40;2.50;;;;;;;16.07;98.63;100300.44;4930461;29;20042;-75
2021/08/02 06:14:55;;;;;;;4.20;2.88;;;;;;;16.24;94.62;100297.78;4917548;29;20053;-76
2021/08/02 06:17:22;;;;;;;4.40;2.50;;;;;;;16.40;93.19;100302.38;4933187;29;20138;-76
2021/08/02 06:19:50;;;;;;;4.10;2.80;;;;;;;16.54;93.07;100302.50;4915083;29;20499;-76
2021/08/02 06:22:18;;;;;;;2.90;2.33;;;;;;;16.47;90.16;100306.44;4954776;28;20044;-76
2021/08/02 06:24:45;;;;;;;4.32;2.40;;;;;;;16.93;90.54;100307.66;4917585;29;20047;-74
2021/08/02 06:27:12;;;;;;;4.30;2.47;;;;;;;17.74;88.47;100303.31;4932980;29;20047;-76
2021/08/02 06:29:39;;;;;;;3.67;2.50;;;;;;;18.52;80.19;100304.16;4897444;29;20051;-75
2021/08/02 06:32:06;;;;;;;5.55;2.65;;;;;;;18.54;76.66;100300.44;4947807;28;20419;-77
2021/08/02 06:34:33;;;;;;;4.25;2.50;;;;;;;18.73;76.32;100296.69;4903212;29;20142;-76
2021/08/02 06:37:00;;;;;;;3.83;1.95;;;;;;;18.73;74.13;100305.56;4910874;29;20114;-76
2021/08/02 06:39:28;;;;;;;4.85;2.40;;;;;;;18.48;79.39;100302.59;4934517;28;20051;-77
2021/08/02 06:41:55;;;;;;;2.83;2.05;;;;;;;18.26;77.97;100303.88;4899642;29;20079;-76
2021/08/02 06:44:22;;;;;;;3.92;2.00;;;;;;;18.34;78.99;100302.56;4931676;28;20052;-77
2021/08/02 06:46:49;;;;;;;5.60;2.00;;;;;;;18.19;78.77;100304.31;4923936;29;20055;-75
2021/08/02 06:49:16;;;;;;;3.38;2.13;;;;;;;18.36;79.75;100296.16;4938378;29;20733;-77
2021/08/02 06:51:43;;;;;;;2.78;1.98;;;;;;;18.28;79.38;100299.28;4924502;29;20066;-75
2021/08/02 06:54:09;;;;;;;3.45;2.30;;;;;;;18.38;80.21;100294.25;4948216;28;20110;-76
2021/08/02 06:56:36;;;;;;;4.95;1.88;;;;;;;18.47;76.43;100308.91;4908599;29;20055;-76
2021/08/02 06:59:03;;;;;;;4.53;2.42;;;;;;;18.16;75.42;100296.44;4924309;29;20047;-78
2021/08/02 07:01:29;;;;;;;2.80;2.00;;;;;;;18.45;79.36;100298.31;4934490;28;20048;-77
2021/08/02 07:03:57;;;;;;;5.05;2.00;;;;;;;18.67;76.06;100299.75;4924113;29;20039;-78
2021/08/02 07:06:24;;;;;;;2.28;1.63;;;;;;;18.78;72.55;100299.97;4907373;29;20047;-79
2021/08/02 07:08:52;;;;;;;3.92;1.90;;;;;;;18.92;72.50;100308.03;4909754;29;20043;-80
2021/08/02 07:11:19;;;;;;;4.93;1.50;;;;;;;18.86;73.61;100312.88;4923794;29;20043;-80
2021/08/02 07:13:46;;;;;;;3.13;1.80;;;;;;;18.79;72.00;100304.34;4951378;28;20043;-77
2021/08/02 07:16:13;;;;;;;2.35;1.42;;;;;;;18.93;70.30;100319.59;4917928;29;20056;-79
2021/08/02 07:18:40;;;;;;;3.13;2.20;;;;;;;19.03;70.26;100312.72;4926524;29;20052;-78
2021/08/02 07:21:07;;;;;;;4.90;2.03;;;;;;;19.16;68.09;100310.13;4934831;28;20055;-78
2021/08/02 07:23:34;;;;;;;2.42;1.75;;;;;;;18.99;68.41;100317.38;4918138;28;20036;-78
2021/08/02 07:26:01;;;;;;;2.10;1.60;;;;;;;18.97;70.10;100324.66;4925314;29;20044;-79
2021/08/02 07:28:28;;;;;;;2.70;1.88;;;;;;;19.09;69.11;100320.38;4953551;28;20047;-79
2021/08/02 07:30:55;;;;;;;5.40;3.03;;;;;;;19.06;68.24;100323.22;4926030;29;20055;-79
2021/08/02 07:33:22;;;;;;;4.75;2.05;;;;;;;19.22;69.20;100313.31;4943281;29;20523;-78
2021/08/02 07:35:49;;;;;;;11.98;2.40;;;;;;;19.37;69.67;100316.84;4911410;29;20164;-79
2021/08/02 07:38:15;;;;;;;2.67;1.60;;;;;;;19.43;67.99;100316.47;4928132;29;20043;-79
2021/08/02 07:40:42;;;;;;;2.50;1.80;;;;;;;19.62;68.96;100311.72;4908770;29;20044;-79
2021/08/02 07:43:09;;;;;;;4.05;1.70;;;;;;;19.80;66.82;100314.19;4959620;28;20072;-78
2021/08/02 07:45:36;;;;;;;3.25;2.10;;;;;;;19.58;68.00;100311.97;4912239;29;20118;-80
2021/08/02 07:48:03;;;;;;;4.93;2.63;;;;;;;19.59;67.11;100319.06;4928312;29;20115;-79
2021/08/02 07:50:29;;;;;;;5.63;1.63;;;;;;;19.58;66.93;100317.34;4911469;29;20043;-78
2021/08/02 07:52:56;;;;;;;5.75;2.00;;;;;;;19.74;66.46;100318.09;4912525;29;20091;-78
2021/08/02 07:55:23;;;;;;;3.28;1.83;;;;;;;19.69;66.00;100314.88;4918723;29;20479;-79
2021/08/02 07:57:54;;;;;;;3.40;1.60;;;;;;;19.85;66.45;100309.38;4935975;29;20039;-78
2021/08/02 08:00:21;;;;;;;5.30;2.28;;;;;;;19.71;63.45;100318.31;4912019;29;20040;-78
2021/08/02 08:02:48;;;;;;;4.05;1.85;;;;;;;19.95;65.11;100313.19;4950521;29;20047;-81
2021/08/02 08:05:16;;;;;;;4.22;1.75;;;;;;;20.15;62.86;100312.72;4934407;29;20075;-80
2021/08/02 08:07:49;;;;;;;5.25;1.85;;;;;;;20.22;62.68;100321.25;4918412;29;20043;-78
2021/08/02 08:10:18;;;;;;;4.20;1.95;;;;;;;20.02;61.93;100321.69;4937749;28;20067;-78
2021/08/02 08:12:45;;;;;;;2.45;1.70;;;;;;;20.05;61.91;100313.44;4919764;29;20040;-78
2021/08/02 08:15:12;;;;;;;3.95;1.63;;;;;;;20.18;60.61;100312.56;4936187;29;20519;-78
2021/08/02 08:17:39;;;;;;;1.70;1.33;;;;;;;20.05;61.82;100306.25;4931211;29;20050;-78
2021/08/02 08:20:08;;;;;;;3.60;1.33;;;;;;;19.51;60.50;100313.31;4933829;29;20035;-78
2021/08/02 08:22:36;;;;;;;3.60;1.60;;;;;;;19.96;61.19;100309.53;4937247;29;20044;-78
2021/08/02 08:25:03;;;;;;;6.88;2.17;;;;;;;20.41;60.22;100312.84;4918639;29;20074;-79
2021/08/02 08:27:30;;;;;;;5.30;1.95;;;;;;;20.58;58.93;100317.09;4960639;28;20451;-79
2021/08/02 08:29:57;;;;;;;2.22;1.30;;;;;;;20.43;57.73;100313.59;4935685;29;20492;-78
2021/08/02 08:32:24;;;;;;;6.38;1.70;;;;;;;20.54;57.25;100312.91;4936206;29;20048;-78
2021/08/02 08:34:51;;;;;;;3.80;1.60;;;;;;;20.54;58.65;100319.16;4949267;28;20044;-78
2021/08/02 08:37:17;;;;;;;2.65;1.48;;;;;;;20.20;59.30;100318.66;4941433;29;20043;-78
2021/08/02 08:39:44;;;;;;;3.28;1.73;;;;;;;20.34;59.04;100325.78;4925844;29;20074;-77
2021/08/02 08:42:13;;;;;;;3.40;1.63;;;;;;;20.01;56.45;100323.53;4925418;29;20055;-78
2021/08/02 08:44:41;;;;;;;3.13;1.77;;;;;;;19.98;59.48;100321.03;4917304;29;20035;-77
2021/08/02 08:47:11;;;;;;;4.78;1.67;;;;;;;19.67;60.37;100331.06;4923624;29;20054;-77
2021/08/02 08:49:39;;;;;;;6.82;1.88;;;;;;;19.81;63.81;100330.16;4923696;29;20060;-77
2021/08/02 08:52:08;;;;;;;3.00;1.60;;;;;;;20.14;61.82;100321.75;4926156;29;20175;-78
2021/08/02 08:54:36;;;;;;;3.38;1.85;;;;;;;20.48;58.82;100316.88;4908091;29;21565;-78
2021/08/02 08:57:07;;;;;;;4.43;1.85;;;;;;;20.87;60.26;100325.88;4926345;29;20052;-78
2021/08/02 08:59:52;;;;;;;2.97;1.60;;;;;;;21.09;55.76;100326.94;4933462;28;20463;-79
2021/08/02 09:02:27;;;;;;;4.50;2.10;;;;;;;20.93;54.18;100326.28;4950359;28;20051;-78
2021/08/02 09:04:56;;;;;;;8.63;6.13;;;;;;;20.97;54.81;100317.06;4940403;28;20614;-79
2021/08/02 09:07:35;;;;;;;57.70;42.38;;;;;;;21.20;56.28;100328.91;4950442;28;20126;-78
2021/08/02 09:10:04;;;;;;;3.60;2.42;;;;;;;21.45;54.28;100321.84;4933385;29;20074;-78
2021/08/02 09:12:32;;;;;;;7.10;3.08;;;;;;;21.73;52.99;100323.41;4928950;29;20055;-78
2021/08/02 09:15:04;;;;;;;4.78;2.70;;;;;;;21.95;52.81;100322.72;4931313;28;20123;-78
2021/08/02 09:17:31;;;;;;;2.97;1.60;;;;;;;22.15;50.48;100325.69;4934295;28;20047;-79
2021/08/02 09:19:59;;;;;;;3.22;1.60;;;;;;;22.11;51.88;100331.38;4921246;29;20044;-78
2021/08/02 09:22:35;;;;;;;8.20;2.97;;;;;;;21.75;50.57;100329.53;4920092;29;20091;-79
2021/08/02 09:25:14;;;;;;;4.80;1.85;;;;;;;21.64;51.25;100323.09;4947269;28;20050;-80
2021/08/02 09:27:43;;;;;;;4.95;2.53;;;;;;;21.38;52.31;100331.31;4930816;28;20048;-78
2021/08/02 09:30:19;;;;;;;6.88;3.67;;;;;;;20.78;54.36;100328.22;4911001;29;20415;-78
2021/08/02 09:32:57;;;;;;;7.30;4.72;;;;;;;20.54;56.19;100334.38;4929864;29;20067;-78
2021/08/02 09:35:39;;;;;;;5.65;3.30;;;;;;;20.23;54.20;100337.22;4953169;28;20526;-79
2021/08/02 09:38:08;;;;;;;4.25;2.03;;;;;;;19.96;56.46;100341.72;4921808;29;20246;-78
2021/08/02 09:40:50;;;;;;;13.10;6.30;;;;;;;19.65;54.94;100348.16;4925551;29;20075;-78
2021/08/02 09:43:21;;;;;;;5.43;2.53;;;;;;;19.58;56.77;100338.78;4917483;29;20040;-77
2021/08/02 09:46:04;;;;;;;2.95;1.80;;;;;;;19.46;56.33;100350.25;4943738;28;20071;-77
2021/08/02 09:48:41;;;;;;;5.25;4.07;;;;;;;19.53;56.89;100354.28;4924185;29;20055;-77
2021/08/02 09:51:19;;;;;;;4.07;1.63;;;;;;;19.64;57.54;100359.84;4934772;29;20055;-77
2021/08/02 09:53:51;;;;;;;4.38;1.40;;;;;;;19.79;54.41;100360.72;4941131;28;20114;-78
2021/08/02 09:56:23;;;;;;;3.22;1.50;;;;;;;20.06;55.94;100348.19;4927677;29;20047;-77
2021/08/02 09:59:07;;;;;;;4.38;3.08;;;;;;;20.28;54.59;100342.31;4924400;29;20066;-78
2021/08/02 10:01:34;;;;;;;2.08;1.52;;;;;;;20.35;54.21;100350.81;4911562;29;20047;-77
2021/08/02 10:04:02;;;;;;;2.33;1.92;;;;;;;20.30;52.78;100350.25;4912270;29;20046;-77
2021/08/02 10:06:29;;;;;;;3.30;1.27;;;;;;;20.20;53.09;100342.81;4959039;28;20107;-77
2021/08/02 10:08:57;;;;;;;2.63;1.35;;;;;;;19.99;54.37;100354.91;4934583;28;20046;-78
2021/08/02 10:11:24;;;;;;;2.47;1.58;;;;;;;19.40;55.24;100355.03;4909155;29;20062;-77
2021/08/02 10:13:52;;;;;;;3.47;2.00;;;;;;;19.29;55.66;100364.69;4927535;29;20035;-77
2021/08/02 10:16:26;;;;;;;3.47;1.27;;;;;;;19.05;56.03;100365.22;4922609;29;20054;-77
2021/08/02 10:19:00;;;;;;;3.45;2.45;;;;;;;18.96;57.31;100370.25;4935090;28;20044;-77
2021/08/02 10:21:37;;;;;;;3.63;1.80;;;;;;;18.80;58.30;100363.13;4953597;28;20044;-77
2021/08/02 10:24:13;;;;;;;2.65;1.42;;;;;;;18.82;60.36;100363.03;4923323;29;20082;-79
2021/08/02 10:26:40;;;;;;;4.13;2.40;;;;;;;18.78;58.04;100364.19;4926005;29;20036;-77
2021/08/02 10:29:08;;;;;;;3.50;1.60;;;;;;;19.12;59.40;100363.91;4905763;29;20204;-78
2021/08/02 10:31:44;;;;;;;2.90;1.83;;;;;;;19.45;59.21;100360.09;4936822;28;20075;-77
2021/08/02 10:34:18;;;;;;;2.75;1.30;;;;;;;19.70;59.08;100358.59;4938876;29;20076;-77
2021/08/02 10:37:05;;;;;;;3.35;1.50;;;;;;;20.14;53.69;100353.94;4919247;29;20040;-78
2021/08/02 10:39:35;;;;;;;2.28;1.55;;;;;;;20.32;54.12;100356.38;4932169;29;20423;-80
2021/08/02 10:42:08;;;;;;;3.47;1.60;;;;;;;20.34;55.08;100362.50;4912376;29;20082;-78
2021/08/02 10:44:56;;;;;;;6.13;1.60;;;;;;;20.04;53.79;100370.72;4943778;29;20043;-78
2021/08/02 10:47:35;;;;;;;3.25;2.00;;;;;;;19.59;55.24;100376.22;4927665;29;20040;-77
2021/08/02 10:50:03;;;;;;;3.22;1.27;;;;;;;19.47;54.93;100368.91;4917705;29;20054;-77
2021/08/02 10:52:30;;;;;;;3.40;1.20;;;;;;;19.12;55.00;100371.94;4935674;28;20206;-79
2021/08/02 10:54:58;;;;;;;2.03;1.20;;;;;;;19.09;56.59;100374.81;4947504;28;20050;-78
2021/08/02 10:57:25;;;;;;;3.60;1.45;;;;;;;19.10;57.68;100379.19;4943601;28;20119;-79
2021/08/02 10:59:52;;;;;;;3.33;1.70;;;;;;;19.11;56.09;100372.03;4935481;29;20048;-80
2021/08/02 11:02:20;;;;;;;3.47;1.40;;;;;;;19.20;57.36;100375.97;4931312;29;20058;-79
2021/08/02 11:04:53;;;;;;;3.10;1.60;;;;;;;19.40;57.44;100376.44;4931153;29;20087;-79
2021/08/02 11:07:20;;;;;;;9.85;2.13;;;;;;;19.64;58.31;100384.81;4930552;29;20044;-78
2021/08/02 11:09:47;;;;;;;2.78;1.45;;;;;;;19.81;57.21;100374.88;4907430;29;20048;-78
2021/08/02 11:12:14;;;;;;;1.60;1.30;;;;;;;19.85;54.12;100377.28;4922963;29;20048;-80
2021/08/02 11:14:48;;;;;;;2.92;1.50;;;;;;;19.83;54.93;100372.94;4894878;29;20364;-80
2021/08/02 11:17:17;;;;;;;3.42;1.30;;;;;;;19.96;55.55;100381.94;4956394;28;20452;-79
2021/08/02 11:20:09;;;;;;;1.58;1.17;;;;;;;19.92;53.07;100375.03;4940605;28;20047;-77
2021/08/02 11:22:57;;;;;;;2.60;1.23;;;;;;;19.61;54.43;100382.34;4945214;28;20158;-79
2021/08/02 11:25:32;;;;;;;1.15;0.95;;;;;;;19.50;54.91;100379.41;4934496;28;20559;-78
2021/08/02 11:28:04;;;;;;;2.53;1.48;;;;;;;19.30;55.25;100386.00;4950400;28;20656;-78
2021/08/02 11:30:30;;;;;;;4.88;1.30;;;;;;;19.19;56.82;100380.47;4929269;29;20900;-78